sensor_id;sensor_type;location;lat;lon;timestamp;pressure;altitude;pressure_sealevel;temperature;humidity
21706;BME280;11014;53.076;18.208;2023-02-11T00:01:40;102421.13;;;6.54;64.74
21706;BME280;11014;53.076;18.208;2023-02-11T00:04:09;102388.53;;;6.09;65.76
21706;BME280;11014;53.076;18.208;2023-02-11T00:06:38;102360.53;;;6.47;64.87
21706;BME280;11014;53.076;18.208;2023-02-11T00:09:06;102388.19;;;6.46;64.79
21706;BME280;11014;53.076;18.208;2023-02-11T00:11:35;102394.56;;;6.53;64.87
21706;BME280;11014;53.076;18.208;2023-02-11T00:14:05;102401.03;;;6.09;65.35
21706;BME280;11014;53.076;18.208;2023-02-11T00:16:35;102414.59;;;6.49;64.95
21706;BME280;11014;53.076;18.208;2023-02-11T00:19:05;102410.28;;;6.64;64.15
21706;BME280;11014;53.076;18.208;2023-02-11T00:21:34;102405.69;;;6.82;63.48
21706;BME280;11014;53.076;18.208;2023-02-11T00:24:03;102416.50;;;6.31;64.00
21706;BME280;11014;53.076;18.208;2023-02-11T00:26:33;102400.41;;;6.56;64.18
21706;BME280;11014;53.076;18.208;2023-02-11T00:29:04;102381.63;;;6.74;63.81
21706;BME280;11014;53.076;18.208;2023-02-11T00:31:33;102388.56;;;6.59;63.67
21706;BME280;11014;53.076;18.208;2023-02-11T00:34:05;102384.50;;;6.39;64.33
21706;BME280;11014;53.076;18.208;2023-02-11T00:36:34;102378.41;;;6.63;64.04
21706;BME280;11014;53.076;18.208;2023-02-11T00:39:03;102369.28;;;6.81;63.32
21706;BME280;11014;53.076;18.208;2023-02-11T00:41:31;102355.09;;;6.81;62.99
21706;BME280;11014;53.076;18.208;2023-02-11T00:44:01;102343.94;;;6.93;62.72
21706;BME280;11014;53.076;18.208;2023-02-11T00:46:30;102339.94;;;6.97;62.32
21706;BME280;11014;53.076;18.208;2023-02-11T00:48:58;102318.56;;;6.97;62.20
21706;BME280;11014;53.076;18.208;2023-02-11T00:51:27;102300.19;;;6.86;62.73
21706;BME280;11014;53.076;18.208;2023-02-11T00:53:56;102307.34;;;6.78;62.79
21706;BME280;11014;53.076;18.208;2023-02-11T00:56:25;102313.13;;;6.41;63.35
21706;BME280;11014;53.076;18.208;2023-02-11T00:58:56;102294.66;;;6.64;62.91
21706;BME280;11014;53.076;18.208;2023-02-11T01:01:25;102303.78;;;6.53;63.60
21706;BME280;11014;53.076;18.208;2023-02-11T01:03:53;102301.19;;;6.69;63.07
21706;BME280;11014;53.076;18.208;2023-02-11T01:06:23;102305.69;;;6.69;62.74
21706;BME280;11014;53.076;18.208;2023-02-11T01:08:52;102306.88;;;6.82;62.00
21706;BME280;11014;53.076;18.208;2023-02-11T01:11:21;102288.31;;;6.81;62.16
21706;BME280;11014;53.076;18.208;2023-02-11T01:13:50;102267.63;;;6.83;61.77
21706;BME280;11014;53.076;18.208;2023-02-11T01:16:19;102267.44;;;6.60;62.28
21706;BME280;11014;53.076;18.208;2023-02-11T01:18:48;102262.44;;;6.73;62.28
21706;BME280;11014;53.076;18.208;2023-02-11T01:21:18;102253.44;;;6.82;61.76
21706;BME280;11014;53.076;18.208;2023-02-11T01:23:47;102255.59;;;6.95;61.33
21706;BME280;11014;53.076;18.208;2023-02-11T01:26:17;102240.75;;;6.92;61.07
21706;BME280;11014;53.076;18.208;2023-02-11T01:28:46;102244.41;;;6.91;60.81
21706;BME280;11014;53.076;18.208;2023-02-11T01:31:15;102234.91;;;6.81;61.51
21706;BME280;11014;53.076;18.208;2023-02-11T01:33:44;102233.72;;;6.83;61.03
21706;BME280;11014;53.076;18.208;2023-02-11T01:36:13;102237.41;;;6.74;61.38
21706;BME280;11014;53.076;18.208;2023-02-11T01:38:41;102229.22;;;6.76;61.20
21706;BME280;11014;53.076;18.208;2023-02-11T01:41:13;102239.38;;;6.48;62.03
21706;BME280;11014;53.076;18.208;2023-02-11T01:43:46;102228.88;;;6.54;61.89
21706;BME280;11014;53.076;18.208;2023-02-11T01:46:36;102227.03;;;6.47;61.44
21706;BME280;11014;53.076;18.208;2023-02-11T01:49:11;102210.72;;;6.82;60.83
21706;BME280;11014;53.076;18.208;2023-02-11T01:54:19;102207.72;;;6.61;61.73
21706;BME280;11014;53.076;18.208;2023-02-11T01:57:10;102201.16;;;6.39;61.60
21706;BME280;11014;53.076;18.208;2023-02-11T02:05:31;102173.31;;;6.74;61.03
21706;BME280;11014;53.076;18.208;2023-02-11T02:08:30;102168.91;;;5.92;62.46
21706;BME280;11014;53.076;18.208;2023-02-11T02:11:02;102169.63;;;6.27;62.25
21706;BME280;11014;53.076;18.208;2023-02-11T02:13:33;102168.13;;;6.65;61.58
21706;BME280;11014;53.076;18.208;2023-02-11T02:16:03;102173.66;;;6.71;61.06
21706;BME280;11014;53.076;18.208;2023-02-11T02:33:13;102147.28;;;6.36;62.33
21706;BME280;11014;53.076;18.208;2023-02-11T02:36:07;102124.25;;;6.51;61.53
21706;BME280;11014;53.076;18.208;2023-02-11T02:38:43;102124.91;;;6.45;61.60
21706;BME280;11014;53.076;18.208;2023-02-11T02:41:23;102121.75;;;6.66;61.01
21706;BME280;11014;53.076;18.208;2023-02-11T02:43:54;102116.09;;;6.44;61.91
21706;BME280;11014;53.076;18.208;2023-02-11T02:46:32;102122.09;;;6.46;61.00
21706;BME280;11014;53.076;18.208;2023-02-11T02:49:01;102103.38;;;6.71;60.51
21706;BME280;11014;53.076;18.208;2023-02-11T03:02:46;102093.56;;;6.63;61.70
21706;BME280;11014;53.076;18.208;2023-02-11T03:05:31;102092.53;;;6.72;61.42
21706;BME280;11014;53.076;18.208;2023-02-11T03:08:28;102098.91;;;6.55;61.17
21706;BME280;11014;53.076;18.208;2023-02-11T03:11:00;102081.00;;;6.80;60.55
21706;BME280;11014;53.076;18.208;2023-02-11T03:13:35;102089.06;;;6.47;61.39
21706;BME280;11014;53.076;18.208;2023-02-11T03:16:17;102089.88;;;6.56;61.33
21706;BME280;11014;53.076;18.208;2023-02-11T03:19:16;102079.06;;;6.41;62.25
21706;BME280;11014;53.076;18.208;2023-02-11T03:21:48;102074.88;;;5.98;62.47
21706;BME280;11014;53.076;18.208;2023-02-11T03:24:27;102067.03;;;6.21;62.71
21706;BME280;11014;53.076;18.208;2023-02-11T03:27:06;102049.84;;;6.40;62.57
21706;BME280;11014;53.076;18.208;2023-02-11T03:29:50;102040.97;;;6.72;61.39
21706;BME280;11014;53.076;18.208;2023-02-11T03:32:28;102043.81;;;6.62;61.59
21706;BME280;11014;53.076;18.208;2023-02-11T03:35:02;102059.84;;;6.54;61.69
21706;BME280;11014;53.076;18.208;2023-02-11T03:37:37;102068.22;;;6.19;61.95
21706;BME280;11014;53.076;18.208;2023-02-11T03:40:15;102055.88;;;6.18;62.55
21706;BME280;11014;53.076;18.208;2023-02-11T03:45:22;102046.19;;;6.49;62.14
21706;BME280;11014;53.076;18.208;2023-02-11T03:48:04;102040.13;;;6.71;61.51
21706;BME280;11014;53.076;18.208;2023-02-11T03:50:35;102031.13;;;6.56;61.25
21706;BME280;11014;53.076;18.208;2023-02-11T03:53:04;102036.66;;;6.63;61.49
21706;BME280;11014;53.076;18.208;2023-02-11T03:55:36;102023.78;;;6.66;61.27
21706;BME280;11014;53.076;18.208;2023-02-11T03:58:06;102013.44;;;6.71;60.92
21706;BME280;11014;53.076;18.208;2023-02-11T04:00:38;102016.78;;;6.57;60.94
21706;BME280;11014;53.076;18.208;2023-02-11T04:03:08;102001.41;;;6.67;61.33
21706;BME280;11014;53.076;18.208;2023-02-11T04:05:38;102006.06;;;6.73;61.17
21706;BME280;11014;53.076;18.208;2023-02-11T04:08:07;102022.13;;;6.57;61.12
21706;BME280;11014;53.076;18.208;2023-02-11T04:10:37;102004.50;;;6.16;62.99
21706;BME280;11014;53.076;18.208;2023-02-11T04:13:07;101999.47;;;6.37;62.72
21706;BME280;11014;53.076;18.208;2023-02-11T04:15:35;101994.75;;;6.63;61.84
21706;BME280;11014;53.076;18.208;2023-02-11T04:18:04;102006.16;;;6.33;62.66
21706;BME280;11014;53.076;18.208;2023-02-11T04:20:33;101987.13;;;6.52;62.31
21706;BME280;11014;53.076;18.208;2023-02-11T04:23:01;101987.41;;;6.65;62.02
21706;BME280;11014;53.076;18.208;2023-02-11T04:25:30;101975.50;;;6.05;62.98
21706;BME280;11014;53.076;18.208;2023-02-11T04:27:58;101987.50;;;6.33;62.74
21706;BME280;11014;53.076;18.208;2023-02-11T04:30:27;101980.09;;;6.51;62.37
21706;BME280;11014;53.076;18.208;2023-02-11T04:32:57;101971.66;;;6.23;63.22
21706;BME280;11014;53.076;18.208;2023-02-11T04:35:26;101969.16;;;6.22;62.97
21706;BME280;11014;53.076;18.208;2023-02-11T04:37:54;101954.81;;;6.07;64.07
21706;BME280;11014;53.076;18.208;2023-02-11T04:40:23;101964.66;;;6.30;62.96
21706;BME280;11014;53.076;18.208;2023-02-11T04:42:52;101960.09;;;6.47;63.33
21706;BME280;11014;53.076;18.208;2023-02-11T04:45:21;101977.19;;;6.14;62.81
21706;BME280;11014;53.076;18.208;2023-02-11T04:47:49;101971.25;;;6.50;62.86
21706;BME280;11014;53.076;18.208;2023-02-11T04:50:18;101978.31;;;6.35;63.41
21706;BME280;11014;53.076;18.208;2023-02-11T04:52:46;101971.66;;;6.15;63.81
21706;BME280;11014;53.076;18.208;2023-02-11T04:55:15;101981.31;;;6.24;63.95
21706;BME280;11014;53.076;18.208;2023-02-11T04:57:43;101985.19;;;5.89;64.78
21706;BME280;11014;53.076;18.208;2023-02-11T05:00:13;101977.81;;;6.24;63.89
21706;BME280;11014;53.076;18.208;2023-02-11T05:02:41;101957.16;;;6.18;64.15
21706;BME280;11014;53.076;18.208;2023-02-11T05:05:10;101977.81;;;6.32;63.72
21706;BME280;11014;53.076;18.208;2023-02-11T05:07:39;101964.81;;;6.13;63.93
21706;BME280;11014;53.076;18.208;2023-02-11T05:10:08;101957.78;;;6.36;63.48
21706;BME280;11014;53.076;18.208;2023-02-11T05:12:37;101948.16;;;6.19;64.27
21706;BME280;11014;53.076;18.208;2023-02-11T05:15:06;101936.47;;;6.28;64.11
21706;BME280;11014;53.076;18.208;2023-02-11T05:17:34;101927.09;;;6.32;63.92
21706;BME280;11014;53.076;18.208;2023-02-11T05:20:03;101923.09;;;6.36;63.95
21706;BME280;11014;53.076;18.208;2023-02-11T05:22:32;101925.06;;;6.50;63.61
21706;BME280;11014;53.076;18.208;2023-02-11T05:25:01;101909.06;;;6.50;63.88
21706;BME280;11014;53.076;18.208;2023-02-11T05:27:29;101897.72;;;6.40;64.10
21706;BME280;11014;53.076;18.208;2023-02-11T05:29:58;101886.81;;;6.11;65.65
21706;BME280;11014;53.076;18.208;2023-02-11T05:32:27;101880.47;;;6.20;66.36
21706;BME280;11014;53.076;18.208;2023-02-11T05:34:56;101889.53;;;5.86;66.84
21706;BME280;11014;53.076;18.208;2023-02-11T05:37:24;101879.00;;;5.93;67.26
21706;BME280;11014;53.076;18.208;2023-02-11T05:39:53;101882.09;;;6.21;65.97
21706;BME280;11014;53.076;18.208;2023-02-11T05:42:22;101886.13;;;6.17;66.25
21706;BME280;11014;53.076;18.208;2023-02-11T05:44:51;101883.03;;;6.44;65.91
21706;BME280;11014;53.076;18.208;2023-02-11T05:47:19;101885.13;;;6.18;66.69
21706;BME280;11014;53.076;18.208;2023-02-11T05:49:48;101881.63;;;6.17;67.65
21706;BME280;11014;53.076;18.208;2023-02-11T05:52:17;101882.81;;;6.07;68.35
21706;BME280;11014;53.076;18.208;2023-02-11T05:54:45;101868.88;;;5.48;70.81
21706;BME280;11014;53.076;18.208;2023-02-11T05:57:14;101864.50;;;5.71;72.34
21706;BME280;11014;53.076;18.208;2023-02-11T05:59:43;101865.38;;;5.23;74.03
21706;BME280;11014;53.076;18.208;2023-02-11T06:02:12;101865.19;;;5.41;75.89
21706;BME280;11014;53.076;18.208;2023-02-11T06:04:43;101870.16;;;5.68;75.80
21706;BME280;11014;53.076;18.208;2023-02-11T06:07:12;101865.66;;;5.69;76.15
21706;BME280;11014;53.076;18.208;2023-02-11T06:09:41;101864.38;;;5.65;76.47
21706;BME280;11014;53.076;18.208;2023-02-11T06:12:09;101851.38;;;5.54;77.14
21706;BME280;11014;53.076;18.208;2023-02-11T06:14:38;101874.19;;;5.48;77.16
21706;BME280;11014;53.076;18.208;2023-02-11T06:17:07;101871.19;;;5.43;77.82
21706;BME280;11014;53.076;18.208;2023-02-11T06:19:36;101869.84;;;5.55;77.46
21706;BME280;11014;53.076;18.208;2023-02-11T06:22:04;101867.69;;;5.51;77.48
21706;BME280;11014;53.076;18.208;2023-02-11T06:24:33;101868.16;;;5.22;78.77
21706;BME280;11014;53.076;18.208;2023-02-11T06:27:21;101864.84;;;5.44;78.87
21706;BME280;11014;53.076;18.208;2023-02-11T06:29:50;101868.03;;;5.48;78.74
21706;BME280;11014;53.076;18.208;2023-02-11T06:32:20;101866.34;;;5.55;78.58
21706;BME280;11014;53.076;18.208;2023-02-11T06:35:11;101863.53;;;5.64;78.44
21706;BME280;11014;53.076;18.208;2023-02-11T06:37:40;101855.53;;;5.72;78.17
21706;BME280;11014;53.076;18.208;2023-02-11T06:40:10;101827.84;;;5.81;77.80
21706;BME280;11014;53.076;18.208;2023-02-11T06:42:39;101834.22;;;5.40;78.39
21706;BME280;11014;53.076;18.208;2023-02-11T06:45:08;101848.34;;;5.73;77.98
21706;BME280;11014;53.076;18.208;2023-02-11T06:47:39;101850.16;;;5.80;77.63
21706;BME280;11014;53.076;18.208;2023-02-11T06:50:11;101850.88;;;5.34;78.80
21706;BME280;11014;53.076;18.208;2023-02-11T06:52:40;101859.88;;;5.65;78.44
21706;BME280;11014;53.076;18.208;2023-02-11T06:55:13;101846.19;;;5.68;78.72
21706;BME280;11014;53.076;18.208;2023-02-11T06:57:41;101845.69;;;5.89;77.98
21706;BME280;11014;53.076;18.208;2023-02-11T07:00:10;101841.31;;;5.96;77.05
21706;BME280;11014;53.076;18.208;2023-02-11T07:02:39;101847.44;;;6.13;76.56
21706;BME280;11014;53.076;18.208;2023-02-11T07:05:08;101853.81;;;5.79;76.21
21706;BME280;11014;53.076;18.208;2023-02-11T07:07:37;101832.50;;;5.87;76.96
21706;BME280;11014;53.076;18.208;2023-02-11T07:10:05;101849.22;;;5.65;77.33
21706;BME280;11014;53.076;18.208;2023-02-11T07:12:37;101844.69;;;5.90;78.01
21706;BME280;11014;53.076;18.208;2023-02-11T07:15:44;101844.81;;;6.05;77.20
21706;BME280;11014;53.076;18.208;2023-02-11T07:18:55;101830.66;;;5.96;77.15
21706;BME280;11014;53.076;18.208;2023-02-11T07:21:45;101823.38;;;5.90;77.28
21706;BME280;11014;53.076;18.208;2023-02-11T07:24:15;101808.13;;;6.07;77.24
21706;BME280;11014;53.076;18.208;2023-02-11T07:26:44;101822.50;;;5.81;77.66
21706;BME280;11014;53.076;18.208;2023-02-11T07:29:13;101819.16;;;5.79;77.67
21706;BME280;11014;53.076;18.208;2023-02-11T07:31:41;101816.16;;;5.90;77.80
21706;BME280;11014;53.076;18.208;2023-02-11T07:34:10;101815.50;;;5.96;78.52
21706;BME280;11014;53.076;18.208;2023-02-11T07:36:39;101802.44;;;6.10;77.83
21706;BME280;11014;53.076;18.208;2023-02-11T07:39:07;101800.63;;;6.02;77.78
21706;BME280;11014;53.076;18.208;2023-02-11T07:41:37;101781.56;;;6.21;77.30
21706;BME280;11014;53.076;18.208;2023-02-11T07:44:06;101776.03;;;6.31;76.90
21706;BME280;11014;53.076;18.208;2023-02-11T07:46:34;101783.16;;;6.38;75.89
21706;BME280;11014;53.076;18.208;2023-02-11T07:49:03;101793.81;;;6.00;76.28
21706;BME280;11014;53.076;18.208;2023-02-11T07:51:32;101789.94;;;6.49;75.99
21706;BME280;11014;53.076;18.208;2023-02-11T07:54:00;101791.59;;;6.50;75.47
21706;BME280;11014;53.076;18.208;2023-02-11T07:56:29;101788.97;;;6.42;76.02
21706;BME280;11014;53.076;18.208;2023-02-11T07:59:02;101783.22;;;6.53;75.92
21706;BME280;11014;53.076;18.208;2023-02-11T08:02:37;101786.31;;;6.34;76.78
21706;BME280;11014;53.076;18.208;2023-02-11T08:05:11;101801.88;;;6.61;75.32
21706;BME280;11014;53.076;18.208;2023-02-11T08:07:49;101774.03;;;6.78;74.91
21706;BME280;11014;53.076;18.208;2023-02-11T08:10:18;101781.81;;;6.65;74.69
21706;BME280;11014;53.076;18.208;2023-02-11T08:12:48;101778.25;;;6.73;74.99
21706;BME280;11014;53.076;18.208;2023-02-11T08:15:25;101757.38;;;6.76;74.69
21706;BME280;11014;53.076;18.208;2023-02-11T08:18:03;101757.72;;;6.73;74.71
21706;BME280;11014;53.076;18.208;2023-02-11T08:21:22;101762.06;;;6.74;74.59
21706;BME280;11014;53.076;18.208;2023-02-11T08:24:05;101774.28;;;6.91;74.41
21706;BME280;11014;53.076;18.208;2023-02-11T08:26:38;101791.75;;;6.79;74.21
21706;BME280;11014;53.076;18.208;2023-02-11T08:29:41;101779.94;;;6.96;74.33
21706;BME280;11014;53.076;18.208;2023-02-11T08:32:20;101778.75;;;6.99;74.22
21706;BME280;11014;53.076;18.208;2023-02-11T08:35:46;101775.00;;;6.85;74.54
21706;BME280;11014;53.076;18.208;2023-02-11T08:38:58;101779.53;;;7.07;73.71
21706;BME280;11014;53.076;18.208;2023-02-11T08:41:53;101767.53;;;7.03;73.56
21706;BME280;11014;53.076;18.208;2023-02-11T08:44:25;101757.53;;;6.97;74.23
21706;BME280;11014;53.076;18.208;2023-02-11T08:46:54;101723.94;;;7.03;74.59
21706;BME280;11014;53.076;18.208;2023-02-11T08:49:27;101732.25;;;7.08;74.52
21706;BME280;11014;53.076;18.208;2023-02-11T08:51:58;101736.16;;;6.97;76.02
21706;BME280;11014;53.076;18.208;2023-02-11T08:54:32;101773.22;;;7.00;76.81
21706;BME280;11014;53.076;18.208;2023-02-11T08:57:00;101794.22;;;7.03;77.07
21706;BME280;11014;53.076;18.208;2023-02-11T08:59:29;101777.00;;;6.83;78.37
21706;BME280;11014;53.076;18.208;2023-02-11T09:01:58;101779.59;;;6.99;78.04
21706;BME280;11014;53.076;18.208;2023-02-11T09:04:26;101780.56;;;6.76;79.07
21706;BME280;11014;53.076;18.208;2023-02-11T09:06:56;101771.19;;;7.02;78.40
21706;BME280;11014;53.076;18.208;2023-02-11T09:09:24;101761.69;;;7.00;77.85
21706;BME280;11014;53.076;18.208;2023-02-11T09:11:53;101758.72;;;6.49;79.80
21706;BME280;11014;53.076;18.208;2023-02-11T09:14:25;101752.19;;;6.97;79.94
21706;BME280;11014;53.076;18.208;2023-02-11T09:16:54;101771.50;;;7.07;79.26
21706;BME280;11014;53.076;18.208;2023-02-11T09:19:24;101754.59;;;6.92;79.41
21706;BME280;11014;53.076;18.208;2023-02-11T09:21:54;101743.25;;;6.90;80.00
21706;BME280;11014;53.076;18.208;2023-02-11T09:24:24;101729.63;;;7.00;79.84
21706;BME280;11014;53.076;18.208;2023-02-11T09:26:53;101741.16;;;6.78;80.93
21706;BME280;11014;53.076;18.208;2023-02-11T09:29:22;101747.34;;;6.78;80.94
21706;BME280;11014;53.076;18.208;2023-02-11T09:31:51;101728.94;;;6.83;81.22
21706;BME280;11014;53.076;18.208;2023-02-11T09:34:19;101717.81;;;6.57;81.82
21706;BME280;11014;53.076;18.208;2023-02-11T09:36:48;101740.09;;;6.87;81.45
21706;BME280;11014;53.076;18.208;2023-02-11T09:39:18;101716.53;;;6.90;81.21
21706;BME280;11014;53.076;18.208;2023-02-11T09:42:06;101725.63;;;6.81;80.80
21706;BME280;11014;53.076;18.208;2023-02-11T09:44:38;101677.91;;;6.78;82.08
21706;BME280;11014;53.076;18.208;2023-02-11T09:47:27;101669.44;;;6.75;82.94
21706;BME280;11014;53.076;18.208;2023-02-11T09:50:33;101690.69;;;6.23;83.31
21706;BME280;11014;53.076;18.208;2023-02-11T09:53:08;101659.56;;;6.61;84.37
21706;BME280;11014;53.076;18.208;2023-02-11T09:55:44;101633.03;;;6.59;85.14
21706;BME280;11014;53.076;18.208;2023-02-11T09:58:16;101635.59;;;6.30;85.87
21706;BME280;11014;53.076;18.208;2023-02-11T10:09:31;101634.97;;;6.65;85.34
21706;BME280;11014;53.076;18.208;2023-02-11T10:12:36;101645.06;;;6.92;85.15
21706;BME280;11014;53.076;18.208;2023-02-11T10:15:16;101649.13;;;7.03;84.75
21706;BME280;11014;53.076;18.208;2023-02-11T10:23:40;101651.81;;;7.03;83.46
21706;BME280;11014;53.076;18.208;2023-02-11T10:26:13;101672.41;;;7.32;83.16
21706;BME280;11014;53.076;18.208;2023-02-11T10:28:46;101670.91;;;7.58;82.21
21706;BME280;11014;53.076;18.208;2023-02-11T10:31:20;101675.31;;;7.51;81.55
21706;BME280;11014;53.076;18.208;2023-02-11T10:34:06;101704.03;;;7.43;81.11
21706;BME280;11014;53.076;18.208;2023-02-11T10:36:40;101707.88;;;7.55;81.14
21706;BME280;11014;53.076;18.208;2023-02-11T10:41:43;101708.91;;;7.68;80.41
21706;BME280;11014;53.076;18.208;2023-02-11T10:44:58;101715.97;;;7.76;80.16
21706;BME280;11014;53.076;18.208;2023-02-11T10:47:30;101718.03;;;7.89;79.81
21706;BME280;11014;53.076;18.208;2023-02-11T10:50:31;101721.91;;;7.86;79.52
21706;BME280;11014;53.076;18.208;2023-02-11T10:53:33;101705.63;;;8.02;79.14
21706;BME280;11014;53.076;18.208;2023-02-11T10:56:06;101702.34;;;8.00;79.17
21706;BME280;11014;53.076;18.208;2023-02-11T10:58:53;101707.28;;;8.03;79.45
21706;BME280;11014;53.076;18.208;2023-02-11T11:06:12;101709.88;;;8.11;80.22
21706;BME280;11014;53.076;18.208;2023-02-11T11:09:13;101703.66;;;7.75;81.36
21706;BME280;11014;53.076;18.208;2023-02-11T11:11:54;101700.75;;;8.06;81.20
21706;BME280;11014;53.076;18.208;2023-02-11T11:14:57;101703.28;;;7.78;81.41
21706;BME280;11014;53.076;18.208;2023-02-11T11:17:27;101705.03;;;7.71;82.89
21706;BME280;11014;53.076;18.208;2023-02-11T11:22:49;101698.22;;;8.19;82.48
21706;BME280;11014;53.076;18.208;2023-02-11T11:25:24;101706.00;;;7.99;82.46
21706;BME280;11014;53.076;18.208;2023-02-11T11:27:56;101689.81;;;8.22;82.12
21706;BME280;11014;53.076;18.208;2023-02-11T11:30:33;101692.66;;;8.20;82.15
21706;BME280;11014;53.076;18.208;2023-02-11T11:33:52;101696.38;;;8.19;82.54
21706;BME280;11014;53.076;18.208;2023-02-11T11:36:21;101701.31;;;8.37;81.71
21706;BME280;11014;53.076;18.208;2023-02-11T11:38:56;101703.72;;;8.47;81.53
21706;BME280;11014;53.076;18.208;2023-02-11T11:41:29;101692.91;;;8.40;81.28
21706;BME280;11014;53.076;18.208;2023-02-11T11:44:16;101708.75;;;8.56;80.80
21706;BME280;11014;53.076;18.208;2023-02-11T11:47:03;101692.91;;;8.40;80.34
21706;BME280;11014;53.076;18.208;2023-02-11T11:49:38;101700.38;;;8.45;80.54
21706;BME280;11014;53.076;18.208;2023-02-11T11:53:03;101703.84;;;8.60;80.32
21706;BME280;11014;53.076;18.208;2023-02-11T11:56:01;101700.75;;;8.42;80.28
21706;BME280;11014;53.076;18.208;2023-02-11T11:59:12;101693.63;;;8.49;80.37
21706;BME280;11014;53.076;18.208;2023-02-11T12:05:16;101705.22;;;8.56;80.68
21706;BME280;11014;53.076;18.208;2023-02-11T12:11:02;101717.16;;;8.74;80.34
21706;BME280;11014;53.076;18.208;2023-02-11T12:16:21;101711.38;;;8.71;79.63
21706;BME280;11014;53.076;18.208;2023-02-11T12:22:00;101712.56;;;8.89;79.58
21706;BME280;11014;53.076;18.208;2023-02-11T12:25:02;101708.97;;;9.04;79.20
21706;BME280;11014;53.076;18.208;2023-02-11T12:35:51;101709.78;;;8.76;79.36
21706;BME280;11014;53.076;18.208;2023-02-11T12:38:45;101717.72;;;8.91;79.75
21706;BME280;11014;53.076;18.208;2023-02-11T12:50:03;101719.94;;;9.09;78.41
21706;BME280;11014;53.076;18.208;2023-02-11T12:55:42;101730.22;;;9.05;78.54
21706;BME280;11014;53.076;18.208;2023-02-11T12:58:28;101730.72;;;9.15;78.58
21706;BME280;11014;53.076;18.208;2023-02-11T13:01:37;101740.31;;;9.03;79.00
21706;BME280;11014;53.076;18.208;2023-02-11T13:04:29;101742.22;;;9.09;79.60
21706;BME280;11014;53.076;18.208;2023-02-11T13:07:10;101744.25;;;9.07;79.64
21706;BME280;11014;53.076;18.208;2023-02-11T13:09:58;101734.88;;;9.18;79.76
21706;BME280;11014;53.076;18.208;2023-02-11T13:12:30;101748.06;;;9.19;79.82
21706;BME280;11014;53.076;18.208;2023-02-11T13:15:21;101745.25;;;9.27;79.91
21706;BME280;11014;53.076;18.208;2023-02-11T13:17:58;101735.84;;;9.38;80.32
21706;BME280;11014;53.076;18.208;2023-02-11T13:20:38;101747.75;;;9.08;80.75
21706;BME280;11014;53.076;18.208;2023-02-11T13:23:30;101740.78;;;9.13;81.33
21706;BME280;11014;53.076;18.208;2023-02-11T13:26:20;101748.56;;;9.29;81.24
21706;BME280;11014;53.076;18.208;2023-02-11T13:29:16;101743.56;;;9.26;81.46
21706;BME280;11014;53.076;18.208;2023-02-11T13:37:25;101761.44;;;9.40;81.95
21706;BME280;11014;53.076;18.208;2023-02-11T13:40:01;101766.84;;;9.47;81.75
21706;BME280;11014;53.076;18.208;2023-02-11T13:42:53;101789.53;;;9.44;81.70
21706;BME280;11014;53.076;18.208;2023-02-11T13:45:45;101776.75;;;9.46;82.09
21706;BME280;11014;53.076;18.208;2023-02-11T13:48:23;101785.03;;;9.51;81.74
21706;BME280;11014;53.076;18.208;2023-02-11T13:50:56;101792.06;;;9.52;81.45
21706;BME280;11014;53.076;18.208;2023-02-11T13:53:47;101790.53;;;9.43;81.71
21706;BME280;11014;53.076;18.208;2023-02-11T13:56:34;101788.34;;;9.53;82.18
21706;BME280;11014;53.076;18.208;2023-02-11T14:11:01;101809.25;;;9.65;81.55
21706;BME280;11014;53.076;18.208;2023-02-11T14:13:31;101821.03;;;9.64;81.79
21706;BME280;11014;53.076;18.208;2023-02-11T14:16:09;101815.16;;;9.53;82.60
21706;BME280;11014;53.076;18.208;2023-02-11T14:21:18;101833.03;;;9.68;82.54
21706;BME280;11014;53.076;18.208;2023-02-11T14:23:50;101834.84;;;9.61;82.53
21706;BME280;11014;53.076;18.208;2023-02-11T14:27:00;101828.09;;;9.71;82.53
21706;BME280;11014;53.076;18.208;2023-02-11T14:29:38;101839.44;;;9.45;82.87
21706;BME280;11014;53.076;18.208;2023-02-11T14:32:39;101844.94;;;9.59;83.37
21706;BME280;11014;53.076;18.208;2023-02-11T14:35:38;101858.22;;;9.67;83.24
21706;BME280;11014;53.076;18.208;2023-02-11T14:41:04;101857.97;;;9.62;83.12
21706;BME280;11014;53.076;18.208;2023-02-11T14:43:40;101855.28;;;9.62;83.82
21706;BME280;11014;53.076;18.208;2023-02-11T14:46:10;101865.59;;;9.65;83.56
21706;BME280;11014;53.076;18.208;2023-02-11T14:48:44;101862.78;;;9.73;83.07
21706;BME280;11014;53.076;18.208;2023-02-11T14:51:37;101878.84;;;9.66;83.25
21706;BME280;11014;53.076;18.208;2023-02-11T14:54:17;101874.03;;;9.83;82.96
21706;BME280;11014;53.076;18.208;2023-02-11T14:57:07;101877.72;;;9.82;82.89
21706;BME280;11014;53.076;18.208;2023-02-11T14:59:36;101882.25;;;9.81;82.89
21706;BME280;11014;53.076;18.208;2023-02-11T15:02:23;101877.47;;;9.77;82.93
21706;BME280;11014;53.076;18.208;2023-02-11T15:04:53;101880.22;;;9.83;82.74
21706;BME280;11014;53.076;18.208;2023-02-11T15:07:22;101879.78;;;9.80;82.66
21706;BME280;11014;53.076;18.208;2023-02-11T15:09:52;101888.84;;;9.79;82.96
21706;BME280;11014;53.076;18.208;2023-02-11T15:12:25;101889.88;;;9.78;83.16
21706;BME280;11014;53.076;18.208;2023-02-11T15:14:58;101893.44;;;9.85;82.79
21706;BME280;11014;53.076;18.208;2023-02-11T15:17:29;101894.28;;;9.92;82.36
21706;BME280;11014;53.076;18.208;2023-02-11T15:20:00;101892.28;;;9.94;82.16
21706;BME280;11014;53.076;18.208;2023-02-11T15:22:32;101905.44;;;9.89;82.02
21706;BME280;11014;53.076;18.208;2023-02-11T15:25:15;101904.16;;;9.85;82.22
21706;BME280;11014;53.076;18.208;2023-02-11T15:27:50;101916.56;;;9.86;82.32
21706;BME280;11014;53.076;18.208;2023-02-11T15:32:57;101923.19;;;9.90;82.20
21706;BME280;11014;53.076;18.208;2023-02-11T15:35:33;101920.34;;;9.91;82.04